sensor_id;sensor_type;location;lat;lon;timestamp;P1;durP1;ratioP1;P2;durP2;ratioP2
38220;SDS011;24023;51.280;7.148;2024-03-02T00:00:17;1.0;;;0.9;;
38220;SDS011;24023;51.280;7.148;2024-03-02T00:05:11;1.0;;;0.9;;
38220;SDS011;24023;51.280;7.148;2024-03-02T00:10:14;1.9;;;0.9;;
38220;SDS011;24023;51.280;7.148;2024-03-02T00:15:19;1.9;;;0.9;;
38220;SDS011;24023;51.280;7.148;2024-03-02T00:20:11;1.7;;;0.7;;
38220;SDS011;24023;51.280;7.148;2024-03-02T00:25:11;1.7;;;0.7;;
38220;SDS011;24023;51.280;7.148;2024-03-02T00:30:26;1.7;;;0.7;;
38220;SDS011;24023;51.280;7.148;2024-03-02T00:35:11;1.4;;;1.0;;
38220;SDS011;24023;51.280;7.148;2024-03-02T00:40:12;1.4;;;1.0;;
38220;SDS011;24023;51.280;7.148;2024-03-02T00:45:14;1.8;;;0.8;;
38220;SDS011;24023;51.280;7.148;2024-03-02T00:50:12;1.8;;;0.8;;
38220;SDS011;24023;51.280;7.148;2024-03-02T00:55:09;1.8;;;0.8;;
38220;SDS011;24023;51.280;7.148;2024-03-02T01:00:18;1.3;;;0.6;;
38220;SDS011;24023;51.280;7.148;2024-03-02T01:05:10;1.3;;;0.6;;
38220;SDS011;24023;51.280;7.148;2024-03-02T01:10:12;1.5;;;0.7;;
38220;SDS011;24023;51.280;7.148;2024-03-02T01:15:12;1.5;;;0.7;;
38220;SDS011;24023;51.280;7.148;2024-03-02T01:20:12;1.5;;;0.7;;
38220;SDS011;24023;51.280;7.148;2024-03-02T01:25:10;1.3;;;0.6;;
38220;SDS011;24023;51.280;7.148;2024-03-02T01:30:13;1.3;;;0.6;;
38220;SDS011;24023;51.280;7.148;2024-03-02T01:35:10;1.3;;;0.7;;
38220;SDS011;24023;51.280;7.148;2024-03-02T01:40:12;1.3;;;0.7;;
38220;SDS011;24023;51.280;7.148;2024-03-02T01:45:14;1.3;;;0.7;;
38220;SDS011;24023;51.280;7.148;2024-03-02T01:50:12;1.3;;;0.6;;
38220;SDS011;24023;51.280;7.148;2024-03-02T01:55:11;1.3;;;0.6;;
38220;SDS011;24023;51.280;7.148;2024-03-02T02:00:17;2.3;;;0.8;;
38220;SDS011;24023;51.280;7.148;2024-03-02T02:05:11;2.3;;;0.8;;
38220;SDS011;24023;51.280;7.148;2024-03-02T02:10:12;2.4;;;0.7;;
38220;SDS011;24023;51.280;7.148;2024-03-02T02:15:26;2.4;;;0.7;;
38220;SDS011;24023;51.280;7.148;2024-03-02T02:20:12;2.4;;;0.7;;
38220;SDS011;24023;51.280;7.148;2024-03-02T02:25:10;1.3;;;0.7;;
38220;SDS011;24023;51.280;7.148;2024-03-02T02:30:13;1.3;;;0.7;;
38220;SDS011;24023;51.280;7.148;2024-03-02T02:35:10;1.6;;;0.9;;
38220;SDS011;24023;51.280;7.148;2024-03-02T02:40:12;1.6;;;0.9;;
38220;SDS011;24023;51.280;7.148;2024-03-02T02:45:16;1.6;;;0.9;;
38220;SDS011;24023;51.280;7.148;2024-03-02T02:50:12;1.1;;;0.6;;
38220;SDS011;24023;51.280;7.148;2024-03-02T02:55:10;1.1;;;0.6;;
38220;SDS011;24023;51.280;7.148;2024-03-02T03:00:17;1.7;;;0.8;;
38220;SDS011;24023;51.280;7.148;2024-03-02T03:05:10;1.7;;;0.8;;
38220;SDS011;24023;51.280;7.148;2024-03-02T03:10:12;1.7;;;0.8;;
38220;SDS011;24023;51.280;7.148;2024-03-02T03:15:12;1.1;;;0.9;;
38220;SDS011;24023;51.280;7.148;2024-03-02T03:20:11;1.1;;;0.9;;
38220;SDS011;24023;51.280;7.148;2024-03-02T03:25:10;1.3;;;0.7;;
38220;SDS011;24023;51.280;7.148;2024-03-02T03:30:13;1.3;;;0.7;;
38220;SDS011;24023;51.280;7.148;2024-03-02T03:35:10;1.1;;;0.7;;
38220;SDS011;24023;51.280;7.148;2024-03-02T03:40:11;1.1;;;0.7;;
38220;SDS011;24023;51.280;7.148;2024-03-02T03:45:13;1.1;;;0.7;;
38220;SDS011;24023;51.280;7.148;2024-03-02T03:50:12;1.9;;;1.0;;
38220;SDS011;24023;51.280;7.148;2024-03-02T03:55:11;1.9;;;1.0;;
38220;SDS011;24023;51.280;7.148;2024-03-02T04:00:17;1.5;;;0.9;;
38220;SDS011;24023;51.280;7.148;2024-03-02T04:05:11;1.5;;;0.9;;
38220;SDS011;24023;51.280;7.148;2024-03-02T04:10:11;1.5;;;0.9;;
38220;SDS011;24023;51.280;7.148;2024-03-02T04:15:12;1.4;;;0.7;;
38220;SDS011;24023;51.280;7.148;2024-03-02T04:20:13;1.4;;;0.7;;
38220;SDS011;24023;51.280;7.148;2024-03-02T04:25:10;1.8;;;0.7;;
38220;SDS011;24023;51.280;7.148;2024-03-02T04:30:13;1.8;;;0.7;;
38220;SDS011;24023;51.280;7.148;2024-03-02T04:35:09;1.8;;;0.7;;
38220;SDS011;24023;51.280;7.148;2024-03-02T04:40:12;1.5;;;0.7;;
38220;SDS011;24023;51.280;7.148;2024-03-02T04:45:14;1.5;;;0.7;;
38220;SDS011;24023;51.280;7.148;2024-03-02T04:50:12;1.9;;;0.7;;
38220;SDS011;24023;51.280;7.148;2024-03-02T04:55:17;1.9;;;0.7;;
38220;SDS011;24023;51.280;7.148;2024-03-02T05:00:17;1.9;;;0.7;;
38220;SDS011;24023;51.280;7.148;2024-03-02T05:05:10;1.3;;;0.8;;
38220;SDS011;24023;51.280;7.148;2024-03-02T05:10:13;1.3;;;0.8;;
38220;SDS011;24023;51.280;7.148;2024-03-02T05:15:13;1.4;;;0.9;;
38220;SDS011;24023;51.280;7.148;2024-03-02T05:20:11;1.4;;;0.9;;
38220;SDS011;24023;51.280;7.148;2024-03-02T05:25:11;1.5;;;0.8;;
38220;SDS011;24023;51.280;7.148;2024-03-02T05:30:13;1.5;;;0.8;;
38220;SDS011;24023;51.280;7.148;2024-03-02T05:35:11;1.5;;;0.8;;
38220;SDS011;24023;51.280;7.148;2024-03-02T05:40:12;1.4;;;1.1;;
38220;SDS011;24023;51.280;7.148;2024-03-02T05:45:13;1.4;;;1.1;;
38220;SDS011;24023;51.280;7.148;2024-03-02T05:50:12;2.3;;;1.1;;
38220;SDS011;24023;51.280;7.148;2024-03-02T05:55:10;2.3;;;1.1;;
38220;SDS011;24023;51.280;7.148;2024-03-02T06:00:19;2.3;;;1.1;;
38220;SDS011;24023;51.280;7.148;2024-03-02T06:05:10;2.1;;;1.1;;
38220;SDS011;24023;51.280;7.148;2024-03-02T06:10:12;2.1;;;1.1;;
38220;SDS011;24023;51.280;7.148;2024-03-02T06:15:12;3.5;;;1.2;;
38220;SDS011;24023;51.280;7.148;2024-03-02T06:20:12;3.5;;;1.2;;
38220;SDS011;24023;51.280;7.148;2024-03-02T06:25:10;3.5;;;1.2;;
38220;SDS011;24023;51.280;7.148;2024-03-02T06:30:13;2.0;;;1.5;;
38220;SDS011;24023;51.280;7.148;2024-03-02T06:35:11;2.0;;;1.5;;
38220;SDS011;24023;51.280;7.148;2024-03-02T06:40:11;2.7;;;1.8;;
38220;SDS011;24023;51.280;7.148;2024-03-02T06:45:14;2.7;;;1.8;;
38220;SDS011;24023;51.280;7.148;2024-03-02T06:50:11;2.7;;;1.8;;
38220;SDS011;24023;51.280;7.148;2024-03-02T06:55:10;2.2;;;1.8;;
38220;SDS011;24023;51.280;7.148;2024-03-02T07:00:17;2.2;;;1.8;;
38220;SDS011;24023;51.280;7.148;2024-03-02T07:05:10;3.3;;;2.0;;
38220;SDS011;24023;51.280;7.148;2024-03-02T07:10:12;3.3;;;2.0;;
38220;SDS011;24023;51.280;7.148;2024-03-02T07:15:30;2.6;;;1.9;;
38220;SDS011;24023;51.280;7.148;2024-03-02T07:20:13;2.6;;;1.9;;
38220;SDS011;24023;51.280;7.148;2024-03-02T07:25:10;2.6;;;1.9;;
38220;SDS011;24023;51.280;7.148;2024-03-02T07:30:13;2.3;;;1.6;;
38220;SDS011;24023;51.280;7.148;2024-03-02T07:35:11;2.3;;;1.6;;
38220;SDS011;24023;51.280;7.148;2024-03-02T07:40:13;3.1;;;2.2;;
38220;SDS011;24023;51.280;7.148;2024-03-02T07:45:14;3.1;;;2.2;;
38220;SDS011;24023;51.280;7.148;2024-03-02T07:50:11;3.1;;;2.2;;
38220;SDS011;24023;51.280;7.148;2024-03-02T07:55:10;3.1;;;1.7;;
38220;SDS011;24023;51.280;7.148;2024-03-02T08:00:18;3.1;;;1.7;;
38220;SDS011;24023;51.280;7.148;2024-03-02T08:05:10;2.7;;;1.8;;
38220;SDS011;24023;51.280;7.148;2024-03-02T08:10:12;2.7;;;1.8;;
38220;SDS011;24023;51.280;7.148;2024-03-02T08:15:13;2.7;;;1.8;;
38220;SDS011;24023;51.280;7.148;2024-03-02T08:20:12;2.7;;;1.5;;
38220;SDS011;24023;51.280;7.148;2024-03-02T08:25:10;2.7;;;1.5;;
38220;SDS011;24023;51.280;7.148;2024-03-02T08:30:14;2.3;;;1.4;;
38220;SDS011;24023;51.280;7.148;2024-03-02T08:35:10;2.3;;;1.4;;
38220;SDS011;24023;51.280;7.148;2024-03-02T08:40:12;2.3;;;1.0;;
38220;SDS011;24023;51.280;7.148;2024-03-02T08:45:14;2.3;;;1.0;;
38220;SDS011;24023;51.280;7.148;2024-03-02T08:50:11;2.3;;;1.0;;
38220;SDS011;24023;51.280;7.148;2024-03-02T08:55:12;1.9;;;1.3;;
38220;SDS011;24023;51.280;7.148;2024-03-02T09:00:17;1.9;;;1.3;;
38220;SDS011;24023;51.280;7.148;2024-03-02T09:05:10;2.5;;;1.1;;
38220;SDS011;24023;51.280;7.148;2024-03-02T09:10:12;2.5;;;1.1;;
38220;SDS011;24023;51.280;7.148;2024-03-02T09:15:12;2.5;;;1.1;;
38220;SDS011;24023;51.280;7.148;2024-03-02T09:20:12;2.4;;;1.1;;
38220;SDS011;24023;51.280;7.148;2024-03-02T09:25:10;2.4;;;1.1;;
38220;SDS011;24023;51.280;7.148;2024-03-02T09:30:13;1.5;;;0.6;;
38220;SDS011;24023;51.280;7.148;2024-03-02T09:35:11;1.5;;;0.6;;
38220;SDS011;24023;51.280;7.148;2024-03-02T09:40:12;1.5;;;0.6;;
38220;SDS011;24023;51.280;7.148;2024-03-02T09:45:14;2.4;;;1.3;;
38220;SDS011;24023;51.280;7.148;2024-03-02T09:50:11;2.4;;;1.3;;
38220;SDS011;24023;51.280;7.148;2024-03-02T09:55:11;2.0;;;1.0;;
38220;SDS011;24023;51.280;7.148;2024-03-02T10:00:17;2.0;;;1.0;;
38220;SDS011;24023;51.280;7.148;2024-03-02T10:05:10;2.0;;;1.0;;
38220;SDS011;24023;51.280;7.148;2024-03-02T10:10:13;1.5;;;0.6;;
38220;SDS011;24023;51.280;7.148;2024-03-02T10:15:11;1.5;;;0.6;;
38220;SDS011;24023;51.280;7.148;2024-03-02T10:20:26;2.6;;;0.8;;
38220;SDS011;24023;51.280;7.148;2024-03-02T10:25:11;2.6;;;0.8;;
38220;SDS011;24023;51.280;7.148;2024-03-02T10:30:13;1.9;;;0.8;;
38220;SDS011;24023;51.280;7.148;2024-03-02T10:35:10;1.9;;;0.8;;
38220;SDS011;24023;51.280;7.148;2024-03-02T10:40:12;1.9;;;0.8;;
38220;SDS011;24023;51.280;7.148;2024-03-02T10:45:14;1.6;;;0.6;;
38220;SDS011;24023;51.280;7.148;2024-03-02T10:50:12;1.6;;;0.6;;
38220;SDS011;24023;51.280;7.148;2024-03-02T10:55:11;1.7;;;0.5;;
38220;SDS011;24023;51.280;7.148;2024-03-02T11:00:18;1.7;;;0.5;;
38220;SDS011;24023;51.280;7.148;2024-03-02T11:05:10;1.6;;;0.7;;
38220;SDS011;24023;51.280;7.148;2024-03-02T11:10:12;1.6;;;0.7;;
38220;SDS011;24023;51.280;7.148;2024-03-02T11:15:11;1.7;;;0.6;;
38220;SDS011;24023;51.280;7.148;2024-03-02T11:20:12;1.7;;;0.6;;
38220;SDS011;24023;51.280;7.148;2024-03-02T11:25:22;2.1;;;0.5;;
38220;SDS011;24023;51.280;7.148;2024-03-02T11:30:23;2.1;;;0.5;;
38220;SDS011;24023;51.280;7.148;2024-03-02T11:35:10;2.1;;;0.5;;
38220;SDS011;24023;51.280;7.148;2024-03-02T11:40:12;1.9;;;0.5;;
38220;SDS011;24023;51.280;7.148;2024-03-02T11:45:15;1.9;;;0.5;;
38220;SDS011;24023;51.280;7.148;2024-03-02T11:50:12;1.6;;;0.7;;
38220;SDS011;24023;51.280;7.148;2024-03-02T11:55:10;1.6;;;0.7;;
38220;SDS011;24023;51.280;7.148;2024-03-02T12:00:18;1.1;;;0.5;;
38220;SDS011;24023;51.280;7.148;2024-03-02T12:05:10;1.1;;;0.5;;
38220;SDS011;24023;51.280;7.148;2024-03-02T12:10:12;1.1;;;0.5;;
38220;SDS011;24023;51.280;7.148;2024-03-02T12:15:11;1.2;;;0.6;;
38220;SDS011;24023;51.280;7.148;2024-03-02T12:20:12;3.7;;;3.1;;
38220;SDS011;24023;51.280;7.148;2024-03-02T12:25:11;3.7;;;3.1;;
38220;SDS011;24023;51.280;7.148;2024-03-02T12:30:13;0.6;;;0.5;;
38220;SDS011;24023;51.280;7.148;2024-03-02T12:35:12;0.6;;;0.5;;
38220;SDS011;24023;51.280;7.148;2024-03-02T12:40:13;0.5;;;0.3;;
38220;SDS011;24023;51.280;7.148;2024-03-02T12:45:14;0.5;;;0.3;;
38220;SDS011;24023;51.280;7.148;2024-03-02T12:50:12;1.4;;;0.5;;
38220;SDS011;24023;51.280;7.148;2024-03-02T12:55:10;1.4;;;0.5;;
38220;SDS011;24023;51.280;7.148;2024-03-02T13:00:18;1.4;;;0.5;;
38220;SDS011;24023;51.280;7.148;2024-03-02T13:05:11;1.3;;;0.5;;
38220;SDS011;24023;51.280;7.148;2024-03-02T13:10:12;1.3;;;0.5;;
38220;SDS011;24023;51.280;7.148;2024-03-02T13:15:12;0.7;;;0.4;;
38220;SDS011;24023;51.280;7.148;2024-03-02T13:20:12;0.7;;;0.4;;
38220;SDS011;24023;51.280;7.148;2024-03-02T13:25:11;0.7;;;0.4;;
38220;SDS011;24023;51.280;7.148;2024-03-02T13:30:13;1.3;;;0.4;;
38220;SDS011;24023;51.280;7.148;2024-03-02T13:35:11;1.3;;;0.4;;
38220;SDS011;24023;51.280;7.148;2024-03-02T13:40:14;1.0;;;0.4;;
38220;SDS011;24023;51.280;7.148;2024-03-02T13:45:14;1.0;;;0.4;;
38220;SDS011;24023;51.280;7.148;2024-03-02T13:50:12;1.0;;;0.4;;
38220;SDS011;24023;51.280;7.148;2024-03-02T13:55:12;1.6;;;0.3;;
38220;SDS011;24023;51.280;7.148;2024-03-02T14:00:18;1.6;;;0.3;;
38220;SDS011;24023;51.280;7.148;2024-03-02T14:05:11;0.6;;;0.3;;
38220;SDS011;24023;51.280;7.148;2024-03-02T14:10:12;0.6;;;0.3;;
38220;SDS011;24023;51.280;7.148;2024-03-02T14:15:11;0.6;;;0.3;;
38220;SDS011;24023;51.280;7.148;2024-03-02T14:20:13;1.0;;;0.4;;
38220;SDS011;24023;51.280;7.148;2024-03-02T14:25:10;1.0;;;0.4;;
38220;SDS011;24023;51.280;7.148;2024-03-02T14:30:13;0.6;;;0.3;;
38220;SDS011;24023;51.280;7.148;2024-03-02T14:35:11;0.6;;;0.3;;
38220;SDS011;24023;51.280;7.148;2024-03-02T14:40:12;0.6;;;0.3;;
38220;SDS011;24023;51.280;7.148;2024-03-02T14:45:13;0.6;;;0.3;;
38220;SDS011;24023;51.280;7.148;2024-03-02T14:50:11;0.6;;;0.3;;
38220;SDS011;24023;51.280;7.148;2024-03-02T14:55:11;0.8;;;0.4;;
38220;SDS011;24023;51.280;7.148;2024-03-02T15:00:18;0.8;;;0.4;;
38220;SDS011;24023;51.280;7.148;2024-03-02T15:05:10;1.0;;;0.7;;
38220;SDS011;24023;51.280;7.148;2024-03-02T15:10:12;1.0;;;0.7;;
38220;SDS011;24023;51.280;7.148;2024-03-02T15:15:12;1.0;;;0.7;;
38220;SDS011;24023;51.280;7.148;2024-03-02T15:20:11;0.8;;;0.6;;
38220;SDS011;24023;51.280;7.148;2024-03-02T15:25:10;0.8;;;0.6;;
38220;SDS011;24023;51.280;7.148;2024-03-02T15:30:13;1.5;;;0.6;;
38220;SDS011;24023;51.280;7.148;2024-03-02T15:35:11;1.5;;;0.6;;
38220;SDS011;24023;51.280;7.148;2024-03-02T15:40:12;1.5;;;0.6;;
38220;SDS011;24023;51.280;7.148;2024-03-02T15:45:13;1.1;;;0.5;;
38220;SDS011;24023;51.280;7.148;2024-03-02T15:50:11;1.1;;;0.5;;
38220;SDS011;24023;51.280;7.148;2024-03-02T15:55:10;1.1;;;0.7;;
38220;SDS011;24023;51.280;7.148;2024-03-02T16:00:17;1.1;;;0.7;;
38220;SDS011;24023;51.280;7.148;2024-03-02T16:05:10;1.4;;;0.8;;
38220;SDS011;24023;51.280;7.148;2024-03-02T16:10:13;1.4;;;0.8;;
38220;SDS011;24023;51.280;7.148;2024-03-02T16:15:11;1.4;;;0.8;;
38220;SDS011;24023;51.280;7.148;2024-03-02T16:20:12;2.3;;;0.8;;
38220;SDS011;24023;51.280;7.148;2024-03-02T16:25:10;2.3;;;0.8;;
38220;SDS011;24023;51.280;7.148;2024-03-02T16:30:13;2.2;;;1.2;;
38220;SDS011;24023;51.280;7.148;2024-03-02T16:35:10;2.2;;;1.2;;
38220;SDS011;24023;51.280;7.148;2024-03-02T16:40:12;2.2;;;1.2;;
38220;SDS011;24023;51.280;7.148;2024-03-02T16:45:13;2.0;;;0.7;;
38220;SDS011;24023;51.280;7.148;2024-03-02T16:50:13;2.0;;;0.7;;
38220;SDS011;24023;51.280;7.148;2024-03-02T16:55:10;1.2;;;0.5;;
38220;SDS011;24023;51.280;7.148;2024-03-02T17:00:17;1.2;;;0.5;;
38220;SDS011;24023;51.280;7.148;2024-03-02T17:05:10;1.2;;;0.5;;
38220;SDS011;24023;51.280;7.148;2024-03-02T17:10:11;0.9;;;0.7;;
38220;SDS011;24023;51.280;7.148;2024-03-02T17:15:14;0.9;;;0.7;;
38220;SDS011;24023;51.280;7.148;2024-03-02T17:20:13;0.9;;;0.5;;
38220;SDS011;24023;51.280;7.148;2024-03-02T17:25:09;0.9;;;0.5;;
38220;SDS011;24023;51.280;7.148;2024-03-02T17:30:13;0.9;;;0.5;;
38220;SDS011;24023;51.280;7.148;2024-03-02T17:35:10;2.1;;;0.7;;
38220;SDS011;24023;51.280;7.148;2024-03-02T17:40:13;2.1;;;0.7;;
38220;SDS011;24023;51.280;7.148;2024-03-02T17:45:14;0.8;;;0.5;;
38220;SDS011;24023;51.280;7.148;2024-03-02T17:50:11;0.8;;;0.5;;
38220;SDS011;24023;51.280;7.148;2024-03-02T17:55:10;1.1;;;0.6;;
38220;SDS011;24023;51.280;7.148;2024-03-02T18:00:17;1.1;;;0.6;;
38220;SDS011;24023;51.280;7.148;2024-03-02T18:05:10;1.1;;;0.6;;
38220;SDS011;24023;51.280;7.148;2024-03-02T18:10:12;0.7;;;0.5;;
38220;SDS011;24023;51.280;7.148;2024-03-02T18:15:12;0.7;;;0.5;;
38220;SDS011;24023;51.280;7.148;2024-03-02T18:20:12;1.6;;;0.8;;
38220;SDS011;24023;51.280;7.148;2024-03-02T18:25:10;1.6;;;0.8;;
38220;SDS011;24023;51.280;7.148;2024-03-02T18:30:14;1.6;;;0.8;;
38220;SDS011;24023;51.280;7.148;2024-03-02T18:35:10;1.3;;;0.7;;
38220;SDS011;24023;51.280;7.148;2024-03-02T18:40:13;1.3;;;0.7;;
38220;SDS011;24023;51.280;7.148;2024-03-02T18:45:13;1.4;;;1.0;;
38220;SDS011;24023;51.280;7.148;2024-03-02T18:50:12;1.4;;;1.0;;
38220;SDS011;24023;51.280;7.148;2024-03-02T18:55:10;1.4;;;1.0;;
38220;SDS011;24023;51.280;7.148;2024-03-02T19:00:18;1.7;;;1.0;;
38220;SDS011;24023;51.280;7.148;2024-03-02T19:05:10;1.7;;;1.0;;
38220;SDS011;24023;51.280;7.148;2024-03-02T19:10:12;1.9;;;1.4;;
38220;SDS011;24023;51.280;7.148;2024-03-02T19:15:13;1.9;;;1.4;;
38220;SDS011;24023;51.280;7.148;2024-03-02T19:20:12;1.9;;;1.4;;
38220;SDS011;24023;51.280;7.148;2024-03-02T19:25:10;2.5;;;1.7;;
38220;SDS011;24023;51.280;7.148;2024-03-02T19:30:13;2.5;;;1.7;;
38220;SDS011;24023;51.280;7.148;2024-03-02T19:35:10;2.1;;;1.6;;
38220;SDS011;24023;51.280;7.148;2024-03-02T19:40:12;2.1;;;1.6;;
38220;SDS011;24023;51.280;7.148;2024-03-02T19:45:13;2.5;;;1.9;;
38220;SDS011;24023;51.280;7.148;2024-03-02T19:50:14;2.5;;;1.9;;
38220;SDS011;24023;51.280;7.148;2024-03-02T19:55:10;2.5;;;1.9;;
38220;SDS011;24023;51.280;7.148;2024-03-02T20:00:20;2.6;;;2.0;;
38220;SDS011;24023;51.280;7.148;2024-03-02T20:05:11;2.6;;;2.0;;
38220;SDS011;24023;51.280;7.148;2024-03-02T20:10:12;2.7;;;2.1;;
38220;SDS011;24023;51.280;7.148;2024-03-02T20:15:13;2.7;;;2.1;;
38220;SDS011;24023;51.280;7.148;2024-03-02T20:20:12;2.7;;;2.1;;
38220;SDS011;24023;51.280;7.148;2024-03-02T20:25:12;2.6;;;2.0;;
38220;SDS011;24023;51.280;7.148;2024-03-02T20:30:13;2.6;;;2.0;;
38220;SDS011;24023;51.280;7.148;2024-03-02T20:35:11;2.9;;;2.1;;
38220;SDS011;24023;51.280;7.148;2024-03-02T20:40:12;2.9;;;2.1;;
38220;SDS011;24023;51.280;7.148;2024-03-02T20:45:16;2.9;;;2.1;;
38220;SDS011;24023;51.280;7.148;2024-03-02T20:50:12;3.6;;;3.0;;
38220;SDS011;24023;51.280;7.148;2024-03-02T20:55:11;3.6;;;3.0;;
38220;SDS011;24023;51.280;7.148;2024-03-02T21:00:17;3.2;;;2.9;;
38220;SDS011;24023;51.280;7.148;2024-03-02T21:05:10;3.2;;;2.9;;
38220;SDS011;24023;51.280;7.148;2024-03-02T21:10:11;3.6;;;2.9;;
38220;SDS011;24023;51.280;7.148;2024-03-02T21:15:12;3.6;;;2.9;;
38220;SDS011;24023;51.280;7.148;2024-03-02T21:20:12;3.6;;;2.9;;
38220;SDS011;24023;51.280;7.148;2024-03-02T21:25:12;3.1;;;2.7;;
38220;SDS011;24023;51.280;7.148;2024-03-02T21:30:13;3.1;;;2.7;;
38220;SDS011;24023;51.280;7.148;2024-03-02T21:35:10;3.2;;;2.9;;
38220;SDS011;24023;51.280;7.148;2024-03-02T21:40:12;3.2;;;2.9;;
38220;SDS011;24023;51.280;7.148;2024-03-02T21:45:14;3.2;;;2.9;;
38220;SDS011;24023;51.280;7.148;2024-03-02T21:50:13;4.2;;;3.0;;
38220;SDS011;24023;51.280;7.148;2024-03-02T21:55:10;4.2;;;3.0;;
38220;SDS011;24023;51.280;7.148;2024-03-02T22:00:17;4.0;;;3.6;;
38220;SDS011;24023;51.280;7.148;2024-03-02T22:05:10;4.0;;;3.6;;
38220;SDS011;24023;51.280;7.148;2024-03-02T22:10:11;4.0;;;3.6;;
38220;SDS011;24023;51.280;7.148;2024-03-02T22:15:11;4.3;;;3.3;;
38220;SDS011;24023;51.280;7.148;2024-03-02T22:20:12;4.3;;;3.3;;
38220;SDS011;24023;51.280;7.148;2024-03-02T22:25:10;4.3;;;3.4;;
38220;SDS011;24023;51.280;7.148;2024-03-02T22:30:12;4.3;;;3.4;;
38220;SDS011;24023;51.280;7.148;2024-03-02T22:35:10;4.3;;;3.4;;
38220;SDS011;24023;51.280;7.148;2024-03-02T22:40:12;3.8;;;3.4;;
38220;SDS011;24023;51.280;7.148;2024-03-02T22:45:15;3.8;;;3.4;;
38220;SDS011;24023;51.280;7.148;2024-03-02T22:50:14;4.1;;;3.7;;
38220;SDS011;24023;51.280;7.148;2024-03-02T22:55:11;4.1;;;3.7;;
38220;SDS011;24023;51.280;7.148;2024-03-02T23:00:24;4.9;;;3.3;;
38220;SDS011;24023;51.280;7.148;2024-03-02T23:05:12;4.9;;;3.3;;
38220;SDS011;24023;51.280;7.148;2024-03-02T23:10:12;4.9;;;3.3;;
38220;SDS011;24023;51.280;7.148;2024-03-02T23:15:11;4.7;;;3.8;;
38220;SDS011;24023;51.280;7.148;2024-03-02T23:20:12;4.7;;;3.8;;
38220;SDS011;24023;51.280;7.148;2024-03-02T23:25:10;4.2;;;3.4;;
38220;SDS011;24023;51.280;7.148;2024-03-02T23:30:13;4.2;;;3.4;;
38220;SDS011;24023;51.280;7.148;2024-03-02T23:35:10;4.2;;;3.4;;
38220;SDS011;24023;51.280;7.148;2024-03-02T23:40:45;4.2;;;3.1;;
38220;SDS011;24023;51.280;7.148;2024-03-02T23:45:14;4.2;;;3.1;;
38220;SDS011;24023;51.280;7.148;2024-03-02T23:50:11;4.2;;;3.4;;
38220;SDS011;24023;51.280;7.148;2024-03-02T23:55:10;4.2;;;3.4;;
